sensor_id;sensor_type;location;lat;lon;timestamp;P1;durP1;ratioP1;P2;durP2;ratioP2
7899;SDS011;3995;50.856;4.404;2022-12-08T00:00:53;11.73;;;10.63;;
7899;SDS011;3995;50.856;4.404;2022-12-08T00:03:20;11.50;;;9.27;;
7899;SDS011;3995;50.856;4.404;2022-12-08T00:05:49;12.18;;;10.95;;
7899;SDS011;3995;50.856;4.404;2022-12-08T00:08:33;12.82;;;11.55;;
7899;SDS011;3995;50.856;4.404;2022-12-08T00:11:17;12.90;;;11.23;;
7899;SDS011;3995;50.856;4.404;2022-12-08T00:13:45;15.02;;;11.13;;
7899;SDS011;3995;50.856;4.404;2022-12-08T00:16:13;12.38;;;11.00;;
7899;SDS011;3995;50.856;4.404;2022-12-08T00:18:41;14.07;;;11.43;;
7899;SDS011;3995;50.856;4.404;2022-12-08T00:21:10;12.98;;;10.55;;
7899;SDS011;3995;50.856;4.404;2022-12-08T00:23:37;14.32;;;11.10;;
7899;SDS011;3995;50.856;4.404;2022-12-08T00:26:05;12.00;;;10.73;;
7899;SDS011;3995;50.856;4.404;2022-12-08T00:28:33;13.23;;;11.32;;
7899;SDS011;3995;50.856;4.404;2022-12-08T00:31:05;11.60;;;10.38;;
7899;SDS011;3995;50.856;4.404;2022-12-08T00:33:33;11.80;;;10.68;;
7899;SDS011;3995;50.856;4.404;2022-12-08T00:36:03;11.35;;;9.80;;
7899;SDS011;3995;50.856;4.404;2022-12-08T00:38:33;13.18;;;10.40;;
7899;SDS011;3995;50.856;4.404;2022-12-08T00:41:00;11.15;;;9.80;;
7899;SDS011;3995;50.856;4.404;2022-12-08T00:43:27;12.90;;;11.60;;
7899;SDS011;3995;50.856;4.404;2022-12-08T00:45:54;12.02;;;10.82;;
7899;SDS011;3995;50.856;4.404;2022-12-08T00:48:21;12.63;;;10.65;;
7899;SDS011;3995;50.856;4.404;2022-12-08T00:50:49;11.23;;;10.10;;
7899;SDS011;3995;50.856;4.404;2022-12-08T00:53:16;14.95;;;11.55;;
7899;SDS011;3995;50.856;4.404;2022-12-08T00:55:45;11.00;;;10.00;;
7899;SDS011;3995;50.856;4.404;2022-12-08T00:58:12;11.57;;;10.38;;
7899;SDS011;3995;50.856;4.404;2022-12-08T01:00:39;11.68;;;10.48;;
7899;SDS011;3995;50.856;4.404;2022-12-08T01:03:08;12.27;;;10.63;;
7899;SDS011;3995;50.856;4.404;2022-12-08T01:05:35;10.88;;;9.70;;
7899;SDS011;3995;50.856;4.404;2022-12-08T01:08:03;13.25;;;10.85;;
7899;SDS011;3995;50.856;4.404;2022-12-08T01:10:31;15.27;;;12.10;;
7899;SDS011;3995;50.856;4.404;2022-12-08T01:13:02;12.48;;;11.07;;
7899;SDS011;3995;50.856;4.404;2022-12-08T01:15:29;15.05;;;10.57;;
7899;SDS011;3995;50.856;4.404;2022-12-08T01:17:56;13.52;;;10.05;;
7899;SDS011;3995;50.856;4.404;2022-12-08T01:20:24;13.50;;;10.80;;
7899;SDS011;3995;50.856;4.404;2022-12-08T01:22:53;11.77;;;10.52;;
7899;SDS011;3995;50.856;4.404;2022-12-08T01:25:20;12.65;;;10.55;;
7899;SDS011;3995;50.856;4.404;2022-12-08T01:27:47;12.93;;;11.55;;
7899;SDS011;3995;50.856;4.404;2022-12-08T01:30:16;13.55;;;10.80;;
7899;SDS011;3995;50.856;4.404;2022-12-08T01:32:43;12.50;;;10.82;;
7899;SDS011;3995;50.856;4.404;2022-12-08T01:35:11;11.15;;;9.95;;
7899;SDS011;3995;50.856;4.404;2022-12-08T01:37:38;11.93;;;10.60;;
7899;SDS011;3995;50.856;4.404;2022-12-08T01:40:06;13.10;;;11.30;;
7899;SDS011;3995;50.856;4.404;2022-12-08T01:42:34;12.07;;;10.65;;
7899;SDS011;3995;50.856;4.404;2022-12-08T01:45:03;11.85;;;10.65;;
7899;SDS011;3995;50.856;4.404;2022-12-08T01:47:36;16.35;;;11.68;;
7899;SDS011;3995;50.856;4.404;2022-12-08T01:50:07;13.25;;;11.85;;
7899;SDS011;3995;50.856;4.404;2022-12-08T01:52:38;13.98;;;12.40;;
7899;SDS011;3995;50.856;4.404;2022-12-08T01:55:10;16.35;;;11.68;;
7899;SDS011;3995;50.856;4.404;2022-12-08T01:57:42;16.88;;;11.93;;
7899;SDS011;3995;50.856;4.404;2022-12-08T02:00:14;15.70;;;12.00;;
7899;SDS011;3995;50.856;4.404;2022-12-08T02:02:48;16.10;;;12.82;;
7899;SDS011;3995;50.856;4.404;2022-12-08T02:05:18;15.13;;;12.85;;
7899;SDS011;3995;50.856;4.404;2022-12-08T02:07:47;15.30;;;13.48;;
7899;SDS011;3995;50.856;4.404;2022-12-08T02:10:16;15.80;;;13.63;;
7899;SDS011;3995;50.856;4.404;2022-12-08T02:12:46;19.67;;;12.85;;
7899;SDS011;3995;50.856;4.404;2022-12-08T02:15:15;13.65;;;12.25;;
7899;SDS011;3995;50.856;4.404;2022-12-08T02:17:47;16.88;;;13.65;;
7899;SDS011;3995;50.856;4.404;2022-12-08T02:20:30;16.30;;;13.52;;
7899;SDS011;3995;50.856;4.404;2022-12-08T02:23:07;16.20;;;13.18;;
7899;SDS011;3995;50.856;4.404;2022-12-08T02:25:50;15.15;;;12.20;;
7899;SDS011;3995;50.856;4.404;2022-12-08T02:28:36;13.40;;;11.98;;
7899;SDS011;3995;50.856;4.404;2022-12-08T02:31:17;15.68;;;12.20;;
7899;SDS011;3995;50.856;4.404;2022-12-08T02:36:50;14.85;;;13.38;;
7899;SDS011;3995;50.856;4.404;2022-12-08T02:39:26;14.95;;;12.75;;
7899;SDS011;3995;50.856;4.404;2022-12-08T02:42:01;14.68;;;11.68;;
7899;SDS011;3995;50.856;4.404;2022-12-08T02:44:37;15.13;;;13.52;;
7899;SDS011;3995;50.856;4.404;2022-12-08T02:47:08;16.48;;;12.20;;
7899;SDS011;3995;50.856;4.404;2022-12-08T02:49:40;13.63;;;12.25;;
7899;SDS011;3995;50.856;4.404;2022-12-08T02:55:07;15.27;;;12.77;;
7899;SDS011;3995;50.856;4.404;2022-12-08T02:57:42;18.55;;;12.35;;
7899;SDS011;3995;50.856;4.404;2022-12-08T03:00:19;17.83;;;12.65;;
7899;SDS011;3995;50.856;4.404;2022-12-08T03:02:50;15.43;;;12.70;;
7899;SDS011;3995;50.856;4.404;2022-12-08T03:05:33;15.82;;;13.20;;
7899;SDS011;3995;50.856;4.404;2022-12-08T03:08:13;16.00;;;13.35;;
7899;SDS011;3995;50.856;4.404;2022-12-08T03:10:46;14.88;;;13.13;;
7899;SDS011;3995;50.856;4.404;2022-12-08T03:13:19;15.35;;;13.10;;
7899;SDS011;3995;50.856;4.404;2022-12-08T03:15:49;14.73;;;13.20;;
7899;SDS011;3995;50.856;4.404;2022-12-08T03:18:19;17.40;;;14.00;;
7899;SDS011;3995;50.856;4.404;2022-12-08T03:20:54;14.60;;;13.10;;
7899;SDS011;3995;50.856;4.404;2022-12-08T03:23:23;14.18;;;12.77;;
7899;SDS011;3995;50.856;4.404;2022-12-08T03:25:52;15.18;;;13.38;;
7899;SDS011;3995;50.856;4.404;2022-12-08T03:28:23;20.05;;;13.15;;
7899;SDS011;3995;50.856;4.404;2022-12-08T03:30:51;16.65;;;13.73;;
7899;SDS011;3995;50.856;4.404;2022-12-08T03:33:23;14.63;;;12.90;;
7899;SDS011;3995;50.856;4.404;2022-12-08T03:35:58;21.92;;;13.32;;
7899;SDS011;3995;50.856;4.404;2022-12-08T03:38:35;17.23;;;12.90;;
7899;SDS011;3995;50.856;4.404;2022-12-08T03:41:04;15.77;;;12.90;;
7899;SDS011;3995;50.856;4.404;2022-12-08T03:43:46;18.02;;;13.63;;
7899;SDS011;3995;50.856;4.404;2022-12-08T03:46:14;15.70;;;13.35;;
7899;SDS011;3995;50.856;4.404;2022-12-08T03:48:42;13.90;;;12.43;;
7899;SDS011;3995;50.856;4.404;2022-12-08T03:51:11;15.70;;;13.30;;
7899;SDS011;3995;50.856;4.404;2022-12-08T03:53:39;14.85;;;12.88;;
7899;SDS011;3995;50.856;4.404;2022-12-08T03:56:13;16.40;;;12.80;;
7899;SDS011;3995;50.856;4.404;2022-12-08T03:58:42;15.57;;;12.50;;
7899;SDS011;3995;50.856;4.404;2022-12-08T04:01:09;15.07;;;12.55;;
7899;SDS011;3995;50.856;4.404;2022-12-08T04:03:38;12.68;;;11.48;;
7899;SDS011;3995;50.856;4.404;2022-12-08T04:06:05;16.30;;;12.90;;
7899;SDS011;3995;50.856;4.404;2022-12-08T04:08:34;13.70;;;11.82;;
7899;SDS011;3995;50.856;4.404;2022-12-08T04:11:01;15.07;;;11.43;;
7899;SDS011;3995;50.856;4.404;2022-12-08T04:13:30;15.35;;;11.88;;
7899;SDS011;3995;50.856;4.404;2022-12-08T04:15:58;14.23;;;11.45;;
7899;SDS011;3995;50.856;4.404;2022-12-08T04:18:25;14.60;;;11.60;;
7899;SDS011;3995;50.856;4.404;2022-12-08T04:20:53;14.00;;;10.85;;
7899;SDS011;3995;50.856;4.404;2022-12-08T04:23:20;15.82;;;12.77;;
7899;SDS011;3995;50.856;4.404;2022-12-08T04:25:49;13.95;;;11.73;;
7899;SDS011;3995;50.856;4.404;2022-12-08T04:28:17;15.90;;;11.30;;
7899;SDS011;3995;50.856;4.404;2022-12-08T04:30:44;13.98;;;11.57;;
7899;SDS011;3995;50.856;4.404;2022-12-08T04:33:12;12.85;;;11.07;;
7899;SDS011;3995;50.856;4.404;2022-12-08T04:35:40;12.95;;;11.65;;
7899;SDS011;3995;50.856;4.404;2022-12-08T04:38:07;15.57;;;12.02;;
7899;SDS011;3995;50.856;4.404;2022-12-08T04:40:34;15.73;;;12.50;;
7899;SDS011;3995;50.856;4.404;2022-12-08T04:43:03;11.77;;;10.55;;
7899;SDS011;3995;50.856;4.404;2022-12-08T04:45:30;13.15;;;10.88;;
7899;SDS011;3995;50.856;4.404;2022-12-08T04:47:58;13.45;;;11.10;;
7899;SDS011;3995;50.856;4.404;2022-12-08T04:50:26;15.60;;;11.30;;
7899;SDS011;3995;50.856;4.404;2022-12-08T04:52:53;13.15;;;11.23;;
7899;SDS011;3995;50.856;4.404;2022-12-08T04:55:21;12.50;;;10.85;;
7899;SDS011;3995;50.856;4.404;2022-12-08T04:57:48;15.63;;;11.95;;
7899;SDS011;3995;50.856;4.404;2022-12-08T05:00:18;13.60;;;10.50;;
7899;SDS011;3995;50.856;4.404;2022-12-08T05:02:45;13.18;;;11.20;;
7899;SDS011;3995;50.856;4.404;2022-12-08T05:05:12;13.95;;;10.82;;
7899;SDS011;3995;50.856;4.404;2022-12-08T05:07:39;12.40;;;11.07;;
7899;SDS011;3995;50.856;4.404;2022-12-08T05:10:07;18.17;;;11.55;;
7899;SDS011;3995;50.856;4.404;2022-12-08T05:12:34;14.88;;;11.13;;
7899;SDS011;3995;50.856;4.404;2022-12-08T05:15:02;13.80;;;10.20;;
7899;SDS011;3995;50.856;4.404;2022-12-08T05:17:31;15.15;;;11.07;;
7899;SDS011;3995;50.856;4.404;2022-12-08T05:19:58;17.92;;;9.95;;
7899;SDS011;3995;50.856;4.404;2022-12-08T05:22:25;16.50;;;10.10;;
7899;SDS011;3995;50.856;4.404;2022-12-08T05:24:53;11.52;;;10.23;;
7899;SDS011;3995;50.856;4.404;2022-12-08T05:27:20;12.75;;;9.98;;
7899;SDS011;3995;50.856;4.404;2022-12-08T05:29:48;11.80;;;9.60;;
7899;SDS011;3995;50.856;4.404;2022-12-08T05:32:15;11.43;;;9.82;;
7899;SDS011;3995;50.856;4.404;2022-12-08T05:34:44;12.02;;;9.30;;
7899;SDS011;3995;50.856;4.404;2022-12-08T05:37:11;13.30;;;9.20;;
7899;SDS011;3995;50.856;4.404;2022-12-08T05:39:39;11.07;;;9.02;;
7899;SDS011;3995;50.856;4.404;2022-12-08T05:42:06;13.80;;;9.85;;
7899;SDS011;3995;50.856;4.404;2022-12-08T05:44:33;13.18;;;8.60;;
7899;SDS011;3995;50.856;4.404;2022-12-08T05:47:00;12.00;;;9.63;;
7899;SDS011;3995;50.856;4.404;2022-12-08T05:49:27;11.43;;;9.18;;
7899;SDS011;3995;50.856;4.404;2022-12-08T05:51:56;14.40;;;9.57;;
7899;SDS011;3995;50.856;4.404;2022-12-08T05:54:24;11.05;;;8.48;;
7899;SDS011;3995;50.856;4.404;2022-12-08T05:56:51;9.80;;;8.80;;
7899;SDS011;3995;50.856;4.404;2022-12-08T05:59:18;11.38;;;8.68;;
7899;SDS011;3995;50.856;4.404;2022-12-08T06:01:45;16.75;;;8.88;;
7899;SDS011;3995;50.856;4.404;2022-12-08T06:04:12;9.30;;;8.38;;
7899;SDS011;3995;50.856;4.404;2022-12-08T06:06:39;12.20;;;9.55;;
7899;SDS011;3995;50.856;4.404;2022-12-08T06:09:08;12.35;;;8.60;;
7899;SDS011;3995;50.856;4.404;2022-12-08T06:11:36;12.90;;;9.50;;
7899;SDS011;3995;50.856;4.404;2022-12-08T06:14:03;10.98;;;7.82;;
7899;SDS011;3995;50.856;4.404;2022-12-08T06:16:30;13.95;;;8.07;;
7899;SDS011;3995;50.856;4.404;2022-12-08T06:18:57;10.65;;;8.20;;
7899;SDS011;3995;50.856;4.404;2022-12-08T06:21:24;9.15;;;6.90;;
7899;SDS011;3995;50.856;4.404;2022-12-08T06:23:52;10.55;;;7.47;;
7899;SDS011;3995;50.856;4.404;2022-12-08T06:26:21;10.98;;;6.95;;
7899;SDS011;3995;50.856;4.404;2022-12-08T06:28:49;12.50;;;7.63;;
7899;SDS011;3995;50.856;4.404;2022-12-08T06:31:17;8.63;;;7.22;;
7899;SDS011;3995;50.856;4.404;2022-12-08T06:33:47;9.13;;;7.70;;
7899;SDS011;3995;50.856;4.404;2022-12-08T06:36:15;9.30;;;8.25;;
7899;SDS011;3995;50.856;4.404;2022-12-08T06:38:43;12.90;;;8.65;;
7899;SDS011;3995;50.856;4.404;2022-12-08T06:41:11;16.42;;;10.50;;
7899;SDS011;3995;50.856;4.404;2022-12-08T06:43:40;7.82;;;7.03;;
7899;SDS011;3995;50.856;4.404;2022-12-08T06:46:09;15.60;;;8.27;;
7899;SDS011;3995;50.856;4.404;2022-12-08T06:48:38;8.77;;;7.40;;
7899;SDS011;3995;50.856;4.404;2022-12-08T06:51:15;11.20;;;7.15;;
7899;SDS011;3995;50.856;4.404;2022-12-08T06:53:44;9.43;;;7.22;;
7899;SDS011;3995;50.856;4.404;2022-12-08T06:56:12;11.90;;;8.13;;
7899;SDS011;3995;50.856;4.404;2022-12-08T06:58:44;8.75;;;7.85;;
7899;SDS011;3995;50.856;4.404;2022-12-08T07:01:12;9.10;;;7.50;;
7899;SDS011;3995;50.856;4.404;2022-12-08T07:03:40;10.93;;;8.07;;
7899;SDS011;3995;50.856;4.404;2022-12-08T07:06:08;10.93;;;7.07;;
7899;SDS011;3995;50.856;4.404;2022-12-08T07:08:40;11.20;;;8.15;;
7899;SDS011;3995;50.856;4.404;2022-12-08T07:11:07;12.65;;;7.40;;
7899;SDS011;3995;50.856;4.404;2022-12-08T07:13:35;9.68;;;7.00;;
7899;SDS011;3995;50.856;4.404;2022-12-08T07:16:05;13.60;;;7.65;;
7899;SDS011;3995;50.856;4.404;2022-12-08T07:18:33;9.60;;;7.82;;
7899;SDS011;3995;50.856;4.404;2022-12-08T07:21:02;12.18;;;7.57;;
7899;SDS011;3995;50.856;4.404;2022-12-08T07:23:29;11.60;;;7.95;;
7899;SDS011;3995;50.856;4.404;2022-12-08T07:25:58;10.13;;;7.68;;
7899;SDS011;3995;50.856;4.404;2022-12-08T07:28:29;12.55;;;8.75;;
7899;SDS011;3995;50.856;4.404;2022-12-08T07:30:57;7.97;;;7.10;;
7899;SDS011;3995;50.856;4.404;2022-12-08T07:33:26;10.40;;;7.38;;
7899;SDS011;3995;50.856;4.404;2022-12-08T07:35:53;10.60;;;7.28;;
7899;SDS011;3995;50.856;4.404;2022-12-08T07:38:21;10.15;;;7.90;;
7899;SDS011;3995;50.856;4.404;2022-12-08T07:40:48;10.32;;;8.23;;
7899;SDS011;3995;50.856;4.404;2022-12-08T07:43:16;14.80;;;8.05;;
7899;SDS011;3995;50.856;4.404;2022-12-08T07:45:43;12.70;;;7.85;;
7899;SDS011;3995;50.856;4.404;2022-12-08T07:48:11;13.45;;;7.78;;
7899;SDS011;3995;50.856;4.404;2022-12-08T07:50:40;11.13;;;7.70;;
7899;SDS011;3995;50.856;4.404;2022-12-08T07:53:08;9.00;;;7.75;;
7899;SDS011;3995;50.856;4.404;2022-12-08T07:55:37;10.82;;;8.15;;
7899;SDS011;3995;50.856;4.404;2022-12-08T07:58:05;9.00;;;7.50;;
7899;SDS011;3995;50.856;4.404;2022-12-08T08:00:32;13.07;;;9.10;;
7899;SDS011;3995;50.856;4.404;2022-12-08T08:02:59;15.73;;;7.90;;
7899;SDS011;3995;50.856;4.404;2022-12-08T08:05:27;11.15;;;8.32;;
7899;SDS011;3995;50.856;4.404;2022-12-08T08:07:55;11.07;;;8.13;;
7899;SDS011;3995;50.856;4.404;2022-12-08T08:10:23;13.93;;;8.38;;
7899;SDS011;3995;50.856;4.404;2022-12-08T08:12:50;11.35;;;7.95;;
7899;SDS011;3995;50.856;4.404;2022-12-08T08:15:18;11.13;;;7.50;;
7899;SDS011;3995;50.856;4.404;2022-12-08T08:17:47;13.38;;;9.30;;
7899;SDS011;3995;50.856;4.404;2022-12-08T08:20:16;12.13;;;8.68;;
7899;SDS011;3995;50.856;4.404;2022-12-08T08:22:44;8.63;;;7.22;;
7899;SDS011;3995;50.856;4.404;2022-12-08T08:25:13;16.23;;;8.70;;
7899;SDS011;3995;50.856;4.404;2022-12-08T08:27:41;13.98;;;8.48;;
7899;SDS011;3995;50.856;4.404;2022-12-08T08:30:10;13.82;;;8.93;;
7899;SDS011;3995;50.856;4.404;2022-12-08T08:32:38;12.10;;;8.10;;
7899;SDS011;3995;50.856;4.404;2022-12-08T08:35:06;11.27;;;7.95;;
7899;SDS011;3995;50.856;4.404;2022-12-08T08:37:34;11.00;;;8.63;;
7899;SDS011;3995;50.856;4.404;2022-12-08T08:40:01;11.63;;;8.68;;
7899;SDS011;3995;50.856;4.404;2022-12-08T08:42:31;14.35;;;9.27;;
7899;SDS011;3995;50.856;4.404;2022-12-08T08:44:58;15.48;;;8.50;;
7899;SDS011;3995;50.856;4.404;2022-12-08T08:47:25;13.93;;;9.27;;
7899;SDS011;3995;50.856;4.404;2022-12-08T08:49:52;16.30;;;8.68;;
7899;SDS011;3995;50.856;4.404;2022-12-08T08:52:19;11.80;;;8.43;;
7899;SDS011;3995;50.856;4.404;2022-12-08T08:54:47;11.93;;;9.27;;
7899;SDS011;3995;50.856;4.404;2022-12-08T08:57:14;12.13;;;9.13;;
7899;SDS011;3995;50.856;4.404;2022-12-08T08:59:43;15.32;;;10.85;;
7899;SDS011;3995;50.856;4.404;2022-12-08T09:02:12;18.85;;;12.43;;
7899;SDS011;3995;50.856;4.404;2022-12-08T09:04:42;18.65;;;11.50;;
7899;SDS011;3995;50.856;4.404;2022-12-08T09:07:10;14.77;;;10.38;;
7899;SDS011;3995;50.856;4.404;2022-12-08T09:09:38;17.48;;;11.52;;
7899;SDS011;3995;50.856;4.404;2022-12-08T09:12:06;12.40;;;9.57;;
7899;SDS011;3995;50.856;4.404;2022-12-08T09:14:33;18.48;;;9.73;;
7899;SDS011;3995;50.856;4.404;2022-12-08T09:17:02;18.77;;;10.60;;
7899;SDS011;3995;50.856;4.404;2022-12-08T09:19:31;15.45;;;10.27;;
7899;SDS011;3995;50.856;4.404;2022-12-08T09:21:59;16.85;;;9.90;;
7899;SDS011;3995;50.856;4.404;2022-12-08T09:24:26;13.18;;;9.90;;
7899;SDS011;3995;50.856;4.404;2022-12-08T09:26:54;17.67;;;11.10;;
7899;SDS011;3995;50.856;4.404;2022-12-08T09:29:21;12.70;;;9.40;;
7899;SDS011;3995;50.856;4.404;2022-12-08T09:31:48;16.90;;;9.40;;
7899;SDS011;3995;50.856;4.404;2022-12-08T09:34:16;11.60;;;8.90;;
7899;SDS011;3995;50.856;4.404;2022-12-08T09:36:43;13.05;;;8.93;;
7899;SDS011;3995;50.856;4.404;2022-12-08T09:39:11;12.63;;;9.35;;
7899;SDS011;3995;50.856;4.404;2022-12-08T09:41:42;18.13;;;9.27;;
7899;SDS011;3995;50.856;4.404;2022-12-08T09:44:26;15.05;;;9.73;;
7899;SDS011;3995;50.856;4.404;2022-12-08T09:47:12;17.02;;;8.93;;
7899;SDS011;3995;50.856;4.404;2022-12-08T09:49:45;17.00;;;9.90;;
7899;SDS011;3995;50.856;4.404;2022-12-08T09:52:18;10.65;;;8.43;;
7899;SDS011;3995;50.856;4.404;2022-12-08T09:54:48;21.30;;;9.88;;
7899;SDS011;3995;50.856;4.404;2022-12-08T09:57:16;16.05;;;9.55;;
7899;SDS011;3995;50.856;4.404;2022-12-08T09:59:46;15.85;;;9.80;;
7899;SDS011;3995;50.856;4.404;2022-12-08T10:02:19;15.35;;;9.30;;
7899;SDS011;3995;50.856;4.404;2022-12-08T10:04:50;12.90;;;8.50;;
7899;SDS011;3995;50.856;4.404;2022-12-08T10:07:21;17.92;;;9.50;;
7899;SDS011;3995;50.856;4.404;2022-12-08T10:09:57;11.63;;;8.93;;
7899;SDS011;3995;50.856;4.404;2022-12-08T10:12:29;17.77;;;9.10;;
7899;SDS011;3995;50.856;4.404;2022-12-08T10:15:04;19.27;;;9.38;;
7899;SDS011;3995;50.856;4.404;2022-12-08T10:17:43;13.80;;;9.80;;
7899;SDS011;3995;50.856;4.404;2022-12-08T10:20:16;18.13;;;10.00;;
7899;SDS011;3995;50.856;4.404;2022-12-08T10:22:45;15.70;;;9.45;;
7899;SDS011;3995;50.856;4.404;2022-12-08T10:25:18;12.82;;;9.50;;
7899;SDS011;3995;50.856;4.404;2022-12-08T10:27:46;14.15;;;9.40;;
7899;SDS011;3995;50.856;4.404;2022-12-08T10:30:17;16.42;;;10.15;;
7899;SDS011;3995;50.856;4.404;2022-12-08T10:32:47;14.30;;;9.02;;
7899;SDS011;3995;50.856;4.404;2022-12-08T10:35:18;14.98;;;8.15;;
7899;SDS011;3995;50.856;4.404;2022-12-08T10:37:53;11.52;;;8.70;;
7899;SDS011;3995;50.856;4.404;2022-12-08T10:40:22;13.70;;;9.40;;
7899;SDS011;3995;50.856;4.404;2022-12-08T10:42:52;15.15;;;8.65;;
7899;SDS011;3995;50.856;4.404;2022-12-08T10:45:22;14.45;;;9.73;;
7899;SDS011;3995;50.856;4.404;2022-12-08T10:47:56;16.48;;;8.95;;
7899;SDS011;3995;50.856;4.404;2022-12-08T10:50:31;12.48;;;9.95;;
7899;SDS011;3995;50.856;4.404;2022-12-08T10:53:00;14.68;;;8.65;;
7899;SDS011;3995;50.856;4.404;2022-12-08T10:55:39;12.73;;;9.00;;
7899;SDS011;3995;50.856;4.404;2022-12-08T10:58:25;11.55;;;8.15;;
7899;SDS011;3995;50.856;4.404;2022-12-08T11:00:55;18.60;;;9.30;;
7899;SDS011;3995;50.856;4.404;2022-12-08T11:03:25;12.88;;;8.95;;
7899;SDS011;3995;50.856;4.404;2022-12-08T11:05:57;12.40;;;7.55;;
7899;SDS011;3995;50.856;4.404;2022-12-08T11:08:26;14.70;;;8.80;;
7899;SDS011;3995;50.856;4.404;2022-12-08T11:10:54;17.08;;;8.00;;
7899;SDS011;3995;50.856;4.404;2022-12-08T11:13:22;15.90;;;8.88;;
7899;SDS011;3995;50.856;4.404;2022-12-08T11:15:51;9.77;;;7.70;;
7899;SDS011;3995;50.856;4.404;2022-12-08T11:18:21;15.10;;;8.52;;
7899;SDS011;3995;50.856;4.404;2022-12-08T11:20:59;13.25;;;9.23;;
7899;SDS011;3995;50.856;4.404;2022-12-08T11:23:31;14.77;;;8.13;;
7899;SDS011;3995;50.856;4.404;2022-12-08T11:26:02;30.02;;;9.02;;
7899;SDS011;3995;50.856;4.404;2022-12-08T11:28:36;17.95;;;9.10;;
7899;SDS011;3995;50.856;4.404;2022-12-08T11:31:05;16.63;;;8.75;;
7899;SDS011;3995;50.856;4.404;2022-12-08T11:33:45;16.60;;;8.80;;
7899;SDS011;3995;50.856;4.404;2022-12-08T11:36:15;32.13;;;9.50;;
7899;SDS011;3995;50.856;4.404;2022-12-08T11:38:43;17.10;;;7.88;;
7899;SDS011;3995;50.856;4.404;2022-12-08T11:41:13;13.35;;;7.55;;
7899;SDS011;3995;50.856;4.404;2022-12-08T11:43:45;14.95;;;7.97;;
7899;SDS011;3995;50.856;4.404;2022-12-08T11:46:17;20.85;;;8.32;;
7899;SDS011;3995;50.856;4.404;2022-12-08T11:48:49;13.60;;;7.82;;
7899;SDS011;3995;50.856;4.404;2022-12-08T11:51:23;13.90;;;7.63;;
7899;SDS011;3995;50.856;4.404;2022-12-08T11:54:02;8.98;;;6.50;;
7899;SDS011;3995;50.856;4.404;2022-12-08T11:56:41;10.07;;;6.38;;
7899;SDS011;3995;50.856;4.404;2022-12-08T11:59:14;11.68;;;7.60;;
7899;SDS011;3995;50.856;4.404;2022-12-08T12:01:46;29.40;;;10.50;;
7899;SDS011;3995;50.856;4.404;2022-12-08T12:04:15;13.65;;;7.70;;
7899;SDS011;3995;50.856;4.404;2022-12-08T12:06:52;25.35;;;9.18;;
7899;SDS011;3995;50.856;4.404;2022-12-08T12:09:36;32.70;;;9.20;;
7899;SDS011;3995;50.856;4.404;2022-12-08T12:12:16;25.42;;;8.30;;
7899;SDS011;3995;50.856;4.404;2022-12-08T12:17:54;16.65;;;8.05;;
7899;SDS011;3995;50.856;4.404;2022-12-08T12:20:26;11.27;;;8.20;;
7899;SDS011;3995;50.856;4.404;2022-12-08T12:22:58;13.77;;;7.57;;
7899;SDS011;3995;50.856;4.404;2022-12-08T12:25:30;21.60;;;8.18;;
7899;SDS011;3995;50.856;4.404;2022-12-08T12:27:59;19.00;;;8.00;;
7899;SDS011;3995;50.856;4.404;2022-12-08T12:30:33;49.45;;;11.40;;
7899;SDS011;3995;50.856;4.404;2022-12-08T12:33:17;10.80;;;6.88;;
7899;SDS011;3995;50.856;4.404;2022-12-08T12:35:45;13.48;;;7.95;;
7899;SDS011;3995;50.856;4.404;2022-12-08T12:38:19;23.85;;;10.10;;
7899;SDS011;3995;50.856;4.404;2022-12-08T12:41:06;15.05;;;8.00;;
7899;SDS011;3995;50.856;4.404;2022-12-08T12:43:36;12.65;;;6.55;;
7899;SDS011;3995;50.856;4.404;2022-12-08T12:55:22;13.32;;;6.75;;
7899;SDS011;3995;50.856;4.404;2022-12-08T12:58:18;9.73;;;6.15;;
7899;SDS011;3995;50.856;4.404;2022-12-08T13:04:05;11.20;;;6.72;;
7899;SDS011;3995;50.856;4.404;2022-12-08T13:06:35;6.45;;;5.75;;
7899;SDS011;3995;50.856;4.404;2022-12-08T13:09:14;9.32;;;5.90;;
7899;SDS011;3995;50.856;4.404;2022-12-08T13:11:52;9.68;;;6.40;;
7899;SDS011;3995;50.856;4.404;2022-12-08T13:14:31;12.93;;;6.15;;
7899;SDS011;3995;50.856;4.404;2022-12-08T13:17:00;11.50;;;6.78;;
7899;SDS011;3995;50.856;4.404;2022-12-08T13:19:31;9.60;;;5.55;;
7899;SDS011;3995;50.856;4.404;2022-12-08T13:22:01;10.65;;;6.00;;
7899;SDS011;3995;50.856;4.404;2022-12-08T13:24:30;8.10;;;5.65;;
7899;SDS011;3995;50.856;4.404;2022-12-08T13:33:02;11.20;;;5.82;;
7899;SDS011;3995;50.856;4.404;2022-12-08T13:35:36;8.77;;;5.95;;
7899;SDS011;3995;50.856;4.404;2022-12-08T13:38:10;10.07;;;6.45;;
7899;SDS011;3995;50.856;4.404;2022-12-08T13:40:41;11.82;;;6.43;;
7899;SDS011;3995;50.856;4.404;2022-12-08T13:43:14;9.02;;;5.53;;
7899;SDS011;3995;50.856;4.404;2022-12-08T13:45:45;7.00;;;5.40;;
7899;SDS011;3995;50.856;4.404;2022-12-08T13:48:14;10.55;;;5.95;;
7899;SDS011;3995;50.856;4.404;2022-12-08T13:50:46;8.23;;;5.78;;
7899;SDS011;3995;50.856;4.404;2022-12-08T13:53:20;10.90;;;6.20;;
7899;SDS011;3995;50.856;4.404;2022-12-08T13:55:50;9.57;;;5.90;;
7899;SDS011;3995;50.856;4.404;2022-12-08T13:58:25;9.88;;;6.30;;
7899;SDS011;3995;50.856;4.404;2022-12-08T14:00:57;7.70;;;5.50;;
7899;SDS011;3995;50.856;4.404;2022-12-08T14:03:30;9.35;;;5.25;;
7899;SDS011;3995;50.856;4.404;2022-12-08T14:06:01;8.95;;;5.60;;
7899;SDS011;3995;50.856;4.404;2022-12-08T14:08:32;8.52;;;5.30;;
7899;SDS011;3995;50.856;4.404;2022-12-08T14:11:22;7.72;;;5.65;;
7899;SDS011;3995;50.856;4.404;2022-12-08T14:14:02;8.85;;;5.75;;
7899;SDS011;3995;50.856;4.404;2022-12-08T14:16:36;6.30;;;5.40;;
7899;SDS011;3995;50.856;4.404;2022-12-08T14:19:05;11.45;;;4.65;;
7899;SDS011;3995;50.856;4.404;2022-12-08T14:21:42;10.32;;;5.80;;
7899;SDS011;3995;50.856;4.404;2022-12-08T14:24:12;7.82;;;5.10;;
7899;SDS011;3995;50.856;4.404;2022-12-08T14:26:43;7.32;;;4.53;;
7899;SDS011;3995;50.856;4.404;2022-12-08T14:29:13;6.00;;;3.10;;
7899;SDS011;3995;50.856;4.404;2022-12-08T14:32:17;4.53;;;3.00;;
7899;SDS011;3995;50.856;4.404;2022-12-08T14:34:52;2.72;;;2.17;;
7899;SDS011;3995;50.856;4.404;2022-12-08T14:37:20;3.20;;;2.47;;
7899;SDS011;3995;50.856;4.404;2022-12-08T14:39:49;3.10;;;2.17;;
7899;SDS011;3995;50.856;4.404;2022-12-08T14:42:21;2.40;;;2.00;;
7899;SDS011;3995;50.856;4.404;2022-12-08T14:44:57;3.45;;;2.42;;
7899;SDS011;3995;50.856;4.404;2022-12-08T14:47:28;9.60;;;2.92;;
7899;SDS011;3995;50.856;4.404;2022-12-08T14:50:02;5.70;;;2.72;;
7899;SDS011;3995;50.856;4.404;2022-12-08T14:52:51;5.05;;;2.50;;
7899;SDS011;3995;50.856;4.404;2022-12-08T14:55:19;3.00;;;2.53;;
7899;SDS011;3995;50.856;4.404;2022-12-08T14:57:49;3.75;;;2.65;;
7899;SDS011;3995;50.856;4.404;2022-12-08T15:00:19;7.38;;;3.42;;
7899;SDS011;3995;50.856;4.404;2022-12-08T15:02:47;3.80;;;2.80;;
7899;SDS011;3995;50.856;4.404;2022-12-08T15:05:15;3.92;;;3.03;;
7899;SDS011;3995;50.856;4.404;2022-12-08T15:07:46;4.18;;;3.13;;
7899;SDS011;3995;50.856;4.404;2022-12-08T15:10:19;5.03;;;3.45;;
7899;SDS011;3995;50.856;4.404;2022-12-08T15:12:59;6.88;;;3.38;;
7899;SDS011;3995;50.856;4.404;2022-12-08T15:15:29;8.88;;;3.60;;
7899;SDS011;3995;50.856;4.404;2022-12-08T15:17:59;4.68;;;3.88;;
7899;SDS011;3995;50.856;4.404;2022-12-08T15:20:31;6.80;;;3.42;;
7899;SDS011;3995;50.856;4.404;2022-12-08T15:23:05;5.22;;;3.80;;
7899;SDS011;3995;50.856;4.404;2022-12-08T15:25:42;5.72;;;3.92;;
7899;SDS011;3995;50.856;4.404;2022-12-08T15:28:11;4.28;;;3.80;;
7899;SDS011;3995;50.856;4.404;2022-12-08T15:30:41;4.00;;;3.70;;
7899;SDS011;3995;50.856;4.404;2022-12-08T15:33:08;6.00;;;3.92;;
7899;SDS011;3995;50.856;4.404;2022-12-08T15:35:36;4.10;;;3.50;;
7899;SDS011;3995;50.856;4.404;2022-12-08T15:38:08;6.22;;;4.38;;
7899;SDS011;3995;50.856;4.404;2022-12-08T15:40:49;7.75;;;4.65;;
7899;SDS011;3995;50.856;4.404;2022-12-08T15:43:18;8.93;;;4.45;;
7899;SDS011;3995;50.856;4.404;2022-12-08T15:45:46;6.65;;;4.40;;